Time;durP1;ratioP1;P1;durP2;ratioP2;P2;SDS_P1;SDS_P2;PMS_P1;PMS_P2;Temp;Humidity;BMP_temperature;BMP_pressure;BME280_temperature;BME280_humidity;BME280_pressure;Samples;Min_cycle;Max_cycle;Signal;HPM_P1;HPM_P2
2022/11/20 00:01:31;;;;;;;37.57;24.43;;;;;;;40.38;34.27;101104.19;5021561;28;20180;-74
2022/11/20 00:03:58;;;;;;;34.33;24.73;;;;;;;39.94;34.62;101106.75;5034212;28;20489;-73
2022/11/20 00:06:26;;;;;;;36.30;23.40;;;;;;;40.08;34.66;101108.59;5034132;28;20418;-74
2022/11/20 00:08:55;;;;;;;38.77;23.73;;;;;;;39.64;35.13;101100.25;5034064;28;20419;-75
2022/11/20 00:11:24;;;;;;;35.10;22.50;;;;;;;40.11;34.81;101102.53;5034237;28;20426;-75
2022/11/20 00:13:53;;;;;;;30.07;21.47;;;;;;;39.92;34.96;101097.34;5034319;28;20430;-75
2022/11/20 00:16:21;;;;;;;30.33;21.00;;;;;;;39.68;35.34;101084.16;5034053;28;20477;-75
2022/11/20 00:18:47;;;;;;;31.63;20.00;;;;;;;39.41;36.04;101094.06;5034052;28;20410;-73
2022/11/20 00:21:19;;;;;;;29.47;21.07;;;;;;;39.23;36.45;101093.16;5034154;28;20973;-73
2022/11/20 00:23:45;;;;;;;31.03;21.27;;;;;;;39.54;35.94;101083.41;5033827;28;21032;-73
2022/11/20 00:26:13;;;;;;;34.30;23.40;;;;;;;39.93;34.96;101074.50;5052224;28;20394;-74
2022/11/20 00:28:40;;;;;;;33.43;21.93;;;;;;;39.86;35.38;101080.38;5034084;28;20407;-74
2022/11/20 00:31:12;;;;;;;35.47;20.90;;;;;;;39.50;35.96;101080.50;5033937;28;20486;-73
2022/11/20 00:33:38;;;;;;;30.20;21.00;;;;;;;39.85;35.37;101070.63;5046247;28;20435;-74
2022/11/20 00:36:15;;;;;;;36.80;21.77;;;;;;;40.14;34.91;101063.84;5040524;28;20420;-74
2022/11/20 00:38:41;;;;;;;28.57;22.37;;;;;;;40.25;34.52;101057.00;5014648;28;20819;-73
2022/11/20 00:41:10;;;;;;;37.07;20.77;;;;;;;40.32;34.83;101061.97;5031669;28;20455;-75
2022/11/20 00:43:37;;;;;;;32.13;21.83;;;;;;;40.00;35.26;101053.09;5014123;28;20426;-75
2022/11/20 00:46:06;;;;;;;30.57;19.33;;;;;;;39.54;35.80;101051.63;5030543;28;20519;-74
2022/11/20 00:48:32;;;;;;;27.77;19.00;;;;;;;39.68;35.92;101052.34;5031971;28;20474;-75
2022/11/20 00:50:58;;;;;;;42.23;20.90;;;;;;;39.91;35.56;101049.56;5033953;28;20928;-75
2022/11/20 00:53:25;;;;;;;33.43;21.40;;;;;;;39.83;35.55;101047.59;5033961;28;20546;-75
2022/11/20 00:56:09;;;;;;;23.03;19.10;;;;;;;39.93;35.73;101036.47;5034086;28;20420;-75
2022/11/20 00:58:40;;;;;;;40.57;20.87;;;;;;;40.09;35.27;101036.84;5033598;28;20439;-74
2022/11/20 01:01:28;;;;;;;31.20;19.90;;;;;;;40.38;35.01;101036.22;5017358;28;20424;-73
2022/11/20 01:03:57;;;;;;;27.17;18.87;;;;;;;40.05;35.28;101025.00;5017329;28;20476;-73
2022/11/20 01:06:26;;;;;;;24.30;18.20;;;;;;;40.29;34.80;101031.59;5035418;28;20896;-73
2022/11/20 01:08:55;;;;;;;24.20;17.60;;;;;;;40.49;34.44;101019.31;5022246;28;20861;-75
2022/11/20 01:11:24;;;;;;;36.40;18.33;;;;;;;40.39;34.63;101013.34;5037182;28;20442;-75
2022/11/20 01:13:52;;;;;;;28.17;18.13;;;;;;;40.11;35.14;101015.59;5055166;28;20513;-75
2022/11/20 01:16:21;;;;;;;34.33;21.80;;;;;;;40.26;34.94;101001.53;5037054;28;20427;-73
2022/11/20 01:18:49;;;;;;;38.67;18.40;;;;;;;40.24;34.75;101007.28;5036822;28;20441;-74
2022/11/20 01:21:20;;;;;;;28.40;16.33;;;;;;;40.01;35.41;101006.59;5055050;28;20442;-73
2022/11/20 01:23:48;;;;;;;27.17;19.27;;;;;;;40.25;35.08;101003.44;5036594;28;20494;-73
2022/11/20 01:26:23;;;;;;;33.40;23.20;;;;;;;40.16;35.17;101002.66;5036736;28;20418;-75
2022/11/20 01:28:50;;;;;;;43.60;30.73;;;;;;;40.29;35.21;100998.97;5031298;28;20423;-75
2022/11/20 01:31:21;;;;;;;36.40;24.20;;;;;;;40.38;35.06;100992.72;5054336;28;20434;-75
2022/11/20 01:33:49;;;;;;;24.40;17.23;;;;;;;40.20;35.04;100990.00;5035676;28;20419;-73
2022/11/20 01:36:16;;;;;;;24.43;15.87;;;;;;;39.83;35.57;100987.84;5054623;28;20434;-74
2022/11/20 01:38:43;;;;;;;26.57;17.90;;;;;;;39.55;36.20;100990.00;5036442;28;20961;-73
2022/11/20 01:41:10;;;;;;;26.47;16.63;;;;;;;39.87;36.02;100986.91;5036357;28;20429;-74
2022/11/20 01:43:36;;;;;;;20.10;14.40;;;;;;;40.14;35.62;100985.84;5036333;28;20934;-74
2022/11/20 01:46:05;;;;;;;28.13;17.07;;;;;;;40.13;35.59;100983.47;5036380;28;20429;-74
2022/11/20 01:48:34;;;;;;;22.77;14.37;;;;;;;40.38;35.34;100979.16;5036249;28;20457;-74
2022/11/20 01:51:02;;;;;;;25.43;16.77;;;;;;;40.44;35.21;100970.50;5036288;28;20453;-73
2022/11/20 01:53:33;;;;;;;21.93;17.00;;;;;;;40.31;35.24;100963.31;5036056;28;20446;-74
2022/11/20 01:56:01;;;;;;;20.60;16.00;;;;;;;40.40;34.96;100950.53;5032839;28;20461;-74
2022/11/20 01:58:35;;;;;;;28.63;16.87;;;;;;;40.40;35.20;100955.97;5036083;28;20415;-74
2022/11/20 02:01:03;;;;;;;25.20;15.37;;;;;;;40.33;35.57;100963.00;5035629;28;20453;-74
2022/11/20 02:03:29;;;;;;;32.50;16.57;;;;;;;40.16;35.75;100950.22;5054207;28;20430;-74
2022/11/20 02:06:10;;;;;;;21.00;15.33;;;;;;;40.30;35.70;100948.13;5036156;28;20492;-73
2022/11/20 02:08:37;;;;;;;21.63;16.73;;;;;;;40.18;35.68;100945.25;5035837;28;21005;-75
2022/11/20 02:11:03;;;;;;;27.97;17.47;;;;;;;40.19;35.90;100942.22;5035976;28;20501;-75
2022/11/20 02:13:44;;;;;;;21.17;16.00;;;;;;;40.14;35.88;100942.38;5035846;28;20533;-75
2022/11/20 02:16:21;;;;;;;20.60;14.73;;;;;;;40.23;35.79;100942.38;5035866;28;20419;-75
2022/11/20 02:18:47;;;;;;;29.67;17.13;;;;;;;40.52;35.69;100939.03;5035708;28;20422;-75
2022/11/20 02:21:32;;;;;;;23.53;13.90;;;;;;;40.56;35.49;100929.09;5035758;28;20438;-74
2022/11/20 02:24:01;;;;;;;30.17;15.90;;;;;;;40.29;35.88;100938.38;5035322;28;21005;-74
2022/11/20 02:26:29;;;;;;;23.97;14.50;;;;;;;40.40;36.45;100930.72;5053931;28;20449;-73
2022/11/20 02:28:56;;;;;;;22.77;16.47;;;;;;;40.52;35.94;100926.25;5035537;28;20419;-74
2022/11/20 02:31:22;;;;;;;18.73;15.33;;;;;;;39.97;36.57;100918.72;5035477;28;20415;-73
2022/11/20 02:33:57;;;;;;;22.50;16.13;;;;;;;40.00;36.59;100917.25;5035784;28;20958;-74
2022/11/20 02:36:27;;;;;;;17.63;14.67;;;;;;;40.27;36.60;100930.56;5035384;28;20226;-74
2022/11/20 02:38:53;;;;;;;23.27;12.97;;;;;;;39.61;37.00;100924.41;5053704;28;20403;-74
2022/11/20 02:41:19;;;;;;;20.37;15.53;;;;;;;40.07;36.59;100922.25;5035233;28;20849;-74
2022/11/20 02:43:45;;;;;;;30.67;17.90;;;;;;;40.15;36.32;100922.25;5035546;28;20977;-74
2022/11/20 02:46:11;;;;;;;30.03;18.37;;;;;;;40.37;36.03;100917.75;5035536;28;20431;-74
2022/11/20 02:48:37;;;;;;;28.50;18.67;;;;;;;40.01;36.25;100910.69;5035115;28;20430;-74
2022/11/20 02:51:03;;;;;;;30.57;16.07;;;;;;;39.88;36.37;100926.03;5053336;28;20457;-75
2022/11/20 02:53:29;;;;;;;29.13;15.67;;;;;;;39.97;36.58;100912.47;5035147;28;20750;-76
2022/11/20 02:55:55;;;;;;;24.97;16.30;;;;;;;40.27;36.09;100918.91;5035169;28;20473;-75
2022/11/20 02:58:21;;;;;;;22.07;16.07;;;;;;;40.21;35.64;100918.25;5035225;28;20453;-74
2022/11/20 03:00:47;;;;;;;31.70;16.00;;;;;;;40.15;36.04;100921.47;5035317;28;20414;-74
2022/11/20 03:03:13;;;;;;;20.20;14.93;;;;;;;40.16;36.02;100921.13;5035287;28;20516;-73
2022/11/20 03:05:39;;;;;;;23.47;17.47;;;;;;;40.01;36.21;100916.13;5034800;28;20287;-74
2022/11/20 03:08:04;;;;;;;26.00;14.63;;;;;;;39.51;36.91;100924.66;5034946;28;20184;-73
2022/11/20 03:10:30;;;;;;;27.27;15.37;;;;;;;39.93;36.30;100915.03;5034755;28;20290;-76
2022/11/20 03:12:56;;;;;;;27.90;16.30;;;;;;;40.12;36.31;100912.00;5034140;28;20203;-76
2022/11/20 03:15:23;;;;;;;20.10;15.63;;;;;;;40.09;36.57;100920.03;5034800;28;20258;-76
2022/11/20 03:17:49;;;;;;;22.90;17.10;;;;;;;39.54;36.74;100918.63;5034566;28;20449;-74
2022/11/20 03:20:15;;;;;;;35.20;16.73;;;;;;;39.73;36.80;100915.66;5034708;28;20457;-74
2022/11/20 03:22:41;;;;;;;19.07;13.73;;;;;;;39.97;36.72;100905.13;5034603;28;20410;-76
2022/11/20 03:25:07;;;;;;;32.33;15.67;;;;;;;39.67;36.96;100916.91;5034278;28;20478;-75
2022/11/20 03:27:34;;;;;;;20.90;16.70;;;;;;;38.81;38.34;100907.28;5034694;28;20184;-75
2022/11/20 03:30:01;;;;;;;22.67;15.63;;;;;;;39.44;37.41;100913.47;5034617;28;20444;-75
2022/11/20 03:32:27;;;;;;;28.17;16.27;;;;;;;39.67;36.92;100904.13;5034549;28;20415;-75
2022/11/20 03:34:52;;;;;;;28.23;14.90;;;;;;;39.65;36.89;100903.63;5034543;28;20422;-75
2022/11/20 03:37:19;;;;;;;22.67;14.50;;;;;;;39.44;36.94;100908.84;5034399;28;20180;-75
2022/11/20 03:39:45;;;;;;;28.50;18.07;;;;;;;39.37;37.47;100905.00;5034560;28;20187;-75
2022/11/20 03:42:44;;;;;;;25.73;14.97;;;;;;;39.26;37.56;100899.06;5034061;28;20796;-75
2022/11/20 03:44:57;;;;;;;21.00;14.70;;;;;;;39.64;36.98;100893.09;5052343;28;20462;-75
2022/11/20 03:47:22;;;;;;;34.37;17.43;;;;;;;39.74;36.63;100890.88;5035232;28;20451;-75
2022/11/20 03:49:48;;;;;;;30.17;16.20;;;;;;;39.76;36.41;100899.50;5028156;28;20469;-74
2022/11/20 03:52:14;;;;;;;29.50;15.47;;;;;;;39.91;36.48;100898.25;5031285;28;20661;-74
2022/11/20 03:54:40;;;;;;;25.60;15.37;;;;;;;39.55;36.74;100889.56;5031171;28;20510;-74
2022/11/20 03:57:06;;;;;;;34.97;17.30;;;;;;;39.54;37.04;100891.47;5031073;28;20187;-74
2022/11/20 03:59:32;;;;;;;22.00;15.27;;;;;;;39.78;36.61;100896.50;5030925;28;20423;-74
2022/11/20 04:01:58;;;;;;;24.13;15.73;;;;;;;39.92;36.35;100882.75;5031254;28;20199;-74
2022/11/20 04:04:24;;;;;;;24.40;16.83;;;;;;;40.08;35.67;100883.06;5030939;28;20199;-74
2022/11/20 04:06:50;;;;;;;31.57;18.93;;;;;;;40.05;36.08;100894.59;5034156;28;20173;-74
2022/11/20 04:09:16;;;;;;;25.67;14.80;;;;;;;39.65;36.80;100900.13;5052184;28;20418;-74
2022/11/20 04:11:42;;;;;;;27.50;15.97;;;;;;;40.09;36.44;100890.94;5052392;28;20405;-74
2022/11/20 04:14:14;;;;;;;31.60;16.67;;;;;;;40.14;36.34;100898.09;5034249;28;20203;-74
2022/11/20 04:16:41;;;;;;;24.57;16.13;;;;;;;40.05;36.35;100892.69;5034237;28;20423;-74
2022/11/20 04:19:11;;;;;;;26.67;15.30;;;;;;;40.15;36.46;100902.44;5033990;28;20818;-74
2022/11/20 04:21:37;;;;;;;29.30;15.83;;;;;;;40.19;35.93;100903.38;5034194;28;21049;-74
2022/11/20 04:24:04;;;;;;;23.70;15.90;;;;;;;40.31;35.88;100913.59;5035912;28;20576;-74
2022/11/20 04:26:31;;;;;;;33.37;16.50;;;;;;;40.11;36.22;100915.84;5037862;28;20476;-74
2022/11/20 04:29:00;;;;;;;22.83;13.73;;;;;;;40.26;36.58;100912.63;5037870;28;20457;-74
2022/11/20 04:31:28;;;;;;;27.37;16.13;;;;;;;39.58;37.35;100916.06;5037766;28;20928;-74
2022/11/20 04:33:55;;;;;;;22.67;16.77;;;;;;;39.86;37.12;100919.34;5037796;28;20422;-74
2022/11/20 04:36:24;;;;;;;24.97;15.40;;;;;;;39.36;37.95;100911.53;5037596;28;20481;-74
2022/11/20 04:38:54;;;;;;;27.00;17.90;;;;;;;39.37;37.69;100918.56;5037785;28;20422;-74
2022/11/20 04:41:22;;;;;;;23.00;15.93;;;;;;;39.80;37.14;100917.88;5037646;28;20430;-73
2022/11/20 04:43:49;;;;;;;23.13;16.10;;;;;;;39.87;37.34;100918.22;5037529;28;20419;-74
2022/11/20 04:46:17;;;;;;;21.83;15.73;;;;;;;39.97;36.94;100916.00;5037847;28;20426;-74
2022/11/20 04:48:43;;;;;;;27.10;16.00;;;;;;;40.08;36.95;100916.47;5037395;28;20863;-74
2022/11/20 04:51:08;;;;;;;24.00;19.00;;;;;;;39.93;37.32;100923.16;5037415;28;20426;-74
2022/11/20 04:53:34;;;;;;;26.20;17.43;;;;;;;40.05;36.72;100927.19;5037282;28;20946;-75
2022/11/20 04:56:05;;;;;;;31.97;16.83;;;;;;;40.12;37.02;100930.25;5037361;28;20180;-75
2022/11/20 04:58:31;;;;;;;23.97;17.60;;;;;;;39.43;37.76;100939.03;5037336;28;20433;-74
2022/11/20 05:01:21;;;;;;;35.20;19.40;;;;;;;39.67;37.66;100938.63;5037392;28;20457;-74
2022/11/20 05:03:47;;;;;;;30.03;16.87;;;;;;;39.65;37.41;100944.38;5036967;28;20427;-74
2022/11/20 05:06:15;;;;;;;27.43;16.03;;;;;;;38.71;39.13;100948.19;5037224;28;20430;-74
2022/11/20 05:08:41;;;;;;;27.20;17.97;;;;;;;39.32;38.09;100956.69;5036918;28;20434;-74
2022/11/20 05:11:13;;;;;;;34.03;16.43;;;;;;;39.48;38.29;100960.59;5037040;28;20502;-74
2022/11/20 05:13:39;;;;;;;38.33;21.47;;;;;;;39.29;38.02;100957.31;5037234;28;20826;-74
2022/11/20 05:16:11;;;;;;;34.40;18.23;;;;;;;38.97;38.99;100965.44;5036886;28;20488;-74
2022/11/20 05:18:39;;;;;;;23.93;17.43;;;;;;;39.68;37.74;100967.38;5036959;28;20804;-74
2022/11/20 05:21:05;;;;;;;30.37;18.60;;;;;;;39.66;37.48;100967.72;5036809;28;20505;-74
2022/11/20 05:23:33;;;;;;;29.77;19.00;;;;;;;39.69;37.76;100972.50;5036602;28;20496;-74
2022/11/20 05:25:59;;;;;;;26.57;15.97;;;;;;;39.85;37.56;100978.28;5036678;28;20458;-74
2022/11/20 05:28:27;;;;;;;30.50;18.47;;;;;;;39.86;36.95;100977.16;5036839;28;20438;-74
2022/11/20 05:30:53;;;;;;;28.63;21.37;;;;;;;39.90;37.22;100988.19;5036684;28;20809;-75
2022/11/20 05:33:20;;;;;;;33.70;23.30;;;;;;;39.85;37.19;100985.63;5036587;28;20869;-75
2022/11/20 05:35:46;;;;;;;32.50;23.53;;;;;;;39.84;36.67;100984.84;5035302;28;20453;-75
2022/11/20 05:38:12;;;;;;;35.50;26.53;;;;;;;39.81;36.93;100984.66;5036197;28;20531;-73
2022/11/20 05:40:38;;;;;;;40.40;24.83;;;;;;;39.94;36.51;100984.53;5036561;28;20517;-74
2022/11/20 05:43:03;;;;;;;37.57;24.73;;;;;;;39.76;36.64;100986.41;5054666;28;20418;-74
2022/11/20 05:45:29;;;;;;;35.27;23.30;;;;;;;39.73;36.63;100989.75;5036360;28;20211;-74
2022/11/20 05:48:00;;;;;;;41.37;26.77;;;;;;;39.85;36.65;100994.59;5036482;28;20793;-74
2022/11/20 05:50:27;;;;;;;35.37;26.50;;;;;;;39.70;36.51;100987.66;5036319;28;20660;-74
2022/11/20 05:52:52;;;;;;;31.30;23.03;;;;;;;39.86;36.76;101000.81;5036390;28;20418;-74
2022/11/20 05:55:18;;;;;;;37.43;23.70;;;;;;;39.84;36.61;100998.44;5036095;28;20422;-74
2022/11/20 05:57:44;;;;;;;34.57;21.97;;;;;;;39.75;36.42;100995.66;5036023;28;20180;-74
2022/11/20 06:00:11;;;;;;;34.73;24.40;;;;;;;39.80;36.39;101002.88;5036226;28;20434;-74
2022/11/20 06:02:36;;;;;;;40.80;24.93;;;;;;;39.65;36.96;101011.44;5035973;28;20222;-74
2022/11/20 06:05:03;;;;;;;36.80;24.63;;;;;;;39.66;36.83;101011.16;5032493;28;20501;-73
2022/11/20 06:07:28;;;;;;;37.83;22.17;;;;;;;39.73;36.84;101008.78;5036055;28;20743;-74
2022/11/20 06:09:54;;;;;;;36.47;24.67;;;;;;;39.85;36.48;101008.16;5036089;28;20516;-74
2022/11/20 06:12:20;;;;;;;39.30;26.87;;;;;;;39.40;37.28;101011.00;5036164;28;20200;-74
2022/11/20 06:14:46;;;;;;;426.73;236.80;;;;;;;39.46;37.34;101014.38;5036006;28;20172;-74
2022/11/20 06:17:12;;;;;;;245.17;123.27;;;;;;;39.46;37.51;101008.94;5036380;28;20559;-73
2022/11/20 06:19:38;;;;;;;239.23;137.50;;;;;;;39.63;37.35;101011.75;5035736;28;20180;-74
2022/11/20 06:22:04;;;;;;;1976.07;797.90;;;;;;;39.66;36.79;101008.44;5035841;28;20188;-74
2022/11/20 06:24:29;;;;;;;769.43;349.17;;;;;;;39.61;36.86;101013.22;5035472;28;20256;-74
2022/11/20 06:26:55;;;;;;;177.30;83.53;;;;;;;39.42;37.40;101016.94;5035976;28;20269;-74
2022/11/20 06:29:21;;;;;;;70.80;43.03;;;;;;;39.75;36.82;101011.97;5035511;28;20506;-73
2022/11/20 06:31:47;;;;;;;40.73;27.83;;;;;;;39.71;36.75;101023.75;5035917;28;20192;-74
2022/11/20 06:34:13;;;;;;;49.20;30.43;;;;;;;39.88;36.77;101012.94;5035471;28;20171;-75
2022/11/20 06:36:39;;;;;;;57.63;34.60;;;;;;;39.84;36.89;101022.03;5035724;28;20419;-74
2022/11/20 06:39:05;;;;;;;36.23;25.40;;;;;;;39.85;36.68;101029.09;5035466;28;20204;-74
2022/11/20 06:41:31;;;;;;;66.77;39.97;;;;;;;39.65;37.20;101023.09;5035492;28;20188;-73
2022/11/20 06:43:57;;;;;;;82.27;47.70;;;;;;;39.83;37.12;101028.59;5035314;28;20180;-74
2022/11/20 06:46:22;;;;;;;35.60;28.30;;;;;;;40.06;36.57;101034.75;5035454;28;20529;-74
2022/11/20 06:48:49;;;;;;;49.77;29.53;;;;;;;40.02;36.67;101023.69;5035207;28;20187;-74
2022/11/20 06:51:15;;;;;;;166.83;78.83;;;;;;;40.31;36.48;101030.47;5035194;28;20454;-74
2022/11/20 06:53:41;;;;;;;47.60;36.50;;;;;;;40.24;36.39;101039.09;5053324;28;20410;-73
2022/11/20 06:56:08;;;;;;;39.37;30.10;;;;;;;40.44;36.26;101043.09;5038161;28;20472;-74
2022/11/20 06:58:35;;;;;;;62.83;43.10;;;;;;;39.84;36.87;101051.91;5026018;28;20913;-73
2022/11/20 07:01:05;;;;;;;510.93;261.40;;;;;;;40.17;36.39;101053.16;5030464;28;20523;-74
2022/11/20 07:03:31;;;;;;;420.53;226.97;;;;;;;40.54;36.07;101054.50;5043779;28;20891;-74
2022/11/20 07:05:58;;;;;;;398.07;199.60;;;;;;;40.49;36.21;101051.13;5034130;28;20458;-74
2022/11/20 07:08:24;;;;;;;454.53;216.40;;;;;;;40.69;35.52;101046.97;5031087;28;20438;-74
2022/11/20 07:10:51;;;;;;;255.87;129.87;;;;;;;40.69;35.61;101052.41;5034226;28;20422;-73
2022/11/20 07:13:16;;;;;;;135.83;70.43;;;;;;;40.70;35.51;101062.16;5032966;28;20446;-74
2022/11/20 07:15:42;;;;;;;65.40;46.17;;;;;;;40.47;35.94;101061.50;5033709;28;20419;-75
2022/11/20 07:18:08;;;;;;;124.00;63.60;;;;;;;40.75;35.66;101059.28;5034125;28;20439;-73
2022/11/20 07:20:35;;;;;;;150.73;74.80;;;;;;;40.91;35.68;101059.63;5034542;28;20430;-73
2022/11/20 07:23:01;;;;;;;118.03;63.07;;;;;;;41.03;35.54;101063.28;5051354;28;20467;-73
2022/11/20 07:25:30;;;;;;;79.90;47.40;;;;;;;41.11;35.57;101072.56;5014935;28;20491;-73
2022/11/20 07:28:00;;;;;;;41.77;28.23;;;;;;;41.17;35.17;101073.97;5014831;28;20452;-73
2022/11/20 07:30:30;;;;;;;53.23;32.73;;;;;;;41.21;35.06;101069.50;5032689;28;20918;-72
2022/11/20 07:32:56;;;;;;;54.33;30.80;;;;;;;41.31;35.10;101079.22;5014742;28;20423;-74
2022/11/20 07:35:26;;;;;;;61.30;31.27;;;;;;;41.39;34.81;101073.00;5014572;28;20428;-73
2022/11/20 07:37:51;;;;;;;39.07;24.83;;;;;;;41.44;34.64;101070.09;5017166;28;20489;-75
2022/11/20 07:40:18;;;;;;;45.40;27.37;;;;;;;41.46;34.50;101084.19;5014829;28;20924;-72
2022/11/20 07:42:49;;;;;;;46.67;26.97;;;;;;;41.50;34.96;101068.81;5032505;28;20169;-74
2022/11/20 07:45:15;;;;;;;33.50;22.73;;;;;;;41.56;34.57;101074.88;5014635;28;20463;-73
2022/11/20 07:47:41;;;;;;;30.13;23.10;;;;;;;41.61;34.41;101070.00;5014591;28;20419;-72
2022/11/20 07:50:07;;;;;;;33.77;21.03;;;;;;;41.43;34.63;101073.94;5013646;28;20511;-72
2022/11/20 07:52:33;;;;;;;53.77;22.87;;;;;;;41.48;34.74;101067.50;5013936;28;20189;-72
2022/11/20 07:54:59;;;;;;;42.90;21.87;;;;;;;41.37;35.08;101058.09;5014105;28;20408;-73
2022/11/20 07:57:25;;;;;;;32.63;20.07;;;;;;;41.45;34.98;101074.41;5014226;28;20180;-75
2022/11/20 07:59:50;;;;;;;28.40;19.30;;;;;;;41.59;34.69;101058.66;5017646;28;20280;-74
2022/11/20 08:02:16;;;;;;;32.10;18.33;;;;;;;41.73;34.77;101063.06;5017813;28;21006;-73
2022/11/20 08:04:42;;;;;;;30.77;18.40;;;;;;;41.75;34.40;101064.41;5017101;28;20204;-73
2022/11/20 08:07:08;;;;;;;29.50;20.60;;;;;;;41.64;34.61;101071.31;5009336;28;20187;-73
2022/11/20 08:09:34;;;;;;;34.07;19.23;;;;;;;41.83;34.45;101079.09;5017893;28;20184;-72
2022/11/20 08:14:44;;;;;;;33.23;19.50;;;;;;;42.04;33.94;101088.09;5034374;28;20643;-75
2022/11/20 08:17:10;;;;;;;37.47;17.03;;;;;;;42.06;34.47;101085.06;5035410;28;20404;-72
2022/11/20 08:19:36;;;;;;;24.50;17.10;;;;;;;42.05;34.38;101097.06;5018363;28;20216;-75
2022/11/20 08:22:02;;;;;;;21.73;16.50;;;;;;;42.14;33.68;101085.00;5018108;28;20234;-76
2022/11/20 08:24:28;;;;;;;26.67;18.77;;;;;;;42.13;33.93;101101.69;5029799;28;20274;-73
2022/11/20 08:26:54;;;;;;;27.27;16.63;;;;;;;41.99;34.40;101091.03;5038196;28;20192;-73
2022/11/20 08:29:20;;;;;;;32.47;17.40;;;;;;;42.04;34.49;101099.00;5037813;28;20447;-74
2022/11/20 08:31:45;;;;;;;33.37;16.33;;;;;;;42.14;33.99;101093.19;5056222;28;20839;-74
2022/11/20 08:34:12;;;;;;;33.20;17.33;;;;;;;42.18;34.13;101090.63;5038046;28;20176;-75
2022/11/20 08:36:38;;;;;;;26.83;15.77;;;;;;;42.08;34.31;101093.69;5055909;28;20167;-74
2022/11/20 08:39:04;;;;;;;26.80;17.03;;;;;;;42.10;34.24;101094.94;5038052;28;20426;-74
2022/11/20 08:41:32;;;;;;;21.67;15.00;;;;;;;42.19;34.47;101092.22;5038158;28;20632;-75
2022/11/20 08:44:07;;;;;;;23.40;15.50;;;;;;;42.21;34.22;101095.41;5055943;28;20940;-75
2022/11/20 08:46:40;;;;;;;30.33;17.70;;;;;;;42.16;34.20;101095.59;5037486;28;20442;-74
2022/11/20 08:49:09;;;;;;;21.00;15.50;;;;;;;42.27;34.42;101096.81;5037568;28;20506;-74
2022/11/20 08:51:36;;;;;;;27.70;18.23;;;;;;;42.33;34.04;101103.66;5037490;28;20441;-76
2022/11/20 08:54:03;;;;;;;22.23;14.83;;;;;;;42.40;34.15;101103.94;5054132;28;20583;-74
2022/11/20 08:56:29;;;;;;;27.60;13.90;;;;;;;42.23;34.48;101103.25;5037362;28;20430;-73
2022/11/20 08:58:56;;;;;;;19.43;16.67;;;;;;;42.39;34.41;101104.28;5028119;28;20447;-72
2022/11/20 09:01:23;;;;;;;23.70;15.57;;;;;;;42.36;34.25;101110.41;5043533;28;20400;-77
2022/11/20 09:03:49;;;;;;;29.53;15.63;;;;;;;42.44;34.20;101114.19;5045147;28;20433;-72
2022/11/20 09:06:16;;;;;;;25.53;15.13;;;;;;;42.40;34.21;101114.84;5035948;28;20542;-74
2022/11/20 09:08:42;;;;;;;18.80;13.40;;;;;;;42.50;33.84;101110.13;5037221;28;20908;-75
2022/11/20 09:11:08;;;;;;;24.73;15.07;;;;;;;42.54;33.82;101111.03;5035879;28;20426;-74
2022/11/20 09:13:35;;;;;;;35.13;17.77;;;;;;;42.60;33.96;101112.47;5036999;28;20450;-75
2022/11/20 09:16:05;;;;;;;25.23;14.63;;;;;;;42.56;34.20;101114.25;5037035;28;20422;-74
2022/11/20 09:18:32;;;;;;;20.20;13.40;;;;;;;42.61;34.05;101111.38;5037002;28;20454;-74
2022/11/20 09:21:04;;;;;;;28.77;14.70;;;;;;;42.71;33.88;101118.34;5055305;28;20399;-74
2022/11/20 09:23:35;;;;;;;23.50;12.87;;;;;;;42.79;33.97;101117.47;5054427;28;20466;-73
2022/11/20 09:26:11;;;;;;;20.30;14.70;;;;;;;42.68;33.97;101117.09;5036784;28;20849;-75
2022/11/20 09:28:37;;;;;;;28.73;16.73;;;;;;;42.50;34.21;101126.50;5033414;28;20465;-76
2022/11/20 09:31:07;;;;;;;18.90;11.90;;;;;;;42.33;34.34;101125.47;5037081;28;20415;-73
2022/11/20 09:33:33;;;;;;;13.30;9.93;;;;;;;42.22;34.68;101128.91;5054874;28;20399;-74
2022/11/20 09:35:59;;;;;;;17.13;9.67;;;;;;;42.51;33.97;101130.81;5036743;28;20415;-73
2022/11/20 09:38:25;;;;;;;22.17;11.10;;;;;;;42.26;34.62;101133.38;5036576;28;20426;-75
2022/11/20 09:41:02;;;;;;;20.13;12.30;;;;;;;42.50;34.49;101131.94;5054955;28;20635;-75
2022/11/20 09:43:54;;;;;;;17.10;9.87;;;;;;;42.35;34.55;101134.13;5054764;28;20430;-75
2022/11/20 09:46:33;;;;;;;17.03;9.47;;;;;;;42.06;35.12;101131.41;5054114;28;20902;-74
2022/11/20 09:49:23;;;;;;;15.57;8.70;;;;;;;42.51;34.20;101136.28;5036379;28;20458;-74
2022/11/20 09:51:58;;;;;;;18.83;9.50;;;;;;;42.19;34.75;101126.88;5036249;28;20415;-73
2022/11/20 09:54:38;;;;;;;16.80;10.70;;;;;;;42.32;34.38;101129.34;5032413;28;20417;-73
2022/11/20 09:57:13;;;;;;;21.23;11.20;;;;;;;42.51;34.37;101130.81;5018975;28;20423;-75
2022/11/20 09:59:46;;;;;;;15.50;10.73;;;;;;;42.72;33.88;101139.00;5020268;28;20418;-74
2022/11/20 10:02:16;;;;;;;14.57;9.43;;;;;;;42.50;34.21;101137.41;5036054;28;20502;-75
2022/11/20 10:04:59;;;;;;;19.57;10.40;;;;;;;42.22;34.79;101131.63;5036135;28;20455;-74
2022/11/20 10:07:36;;;;;;;20.70;11.20;;;;;;;42.44;34.44;101130.56;5036334;28;20423;-74
2022/11/20 10:10:02;;;;;;;25.70;11.27;;;;;;;42.70;34.19;101112.06;5035761;28;20914;-74
2022/11/20 10:12:46;;;;;;;22.63;10.30;;;;;;;42.67;34.26;101126.41;5035882;28;20492;-74
2022/11/20 10:15:15;;;;;;;20.03;12.10;;;;;;;42.27;34.47;101109.66;5035389;28;20511;-76
2022/11/20 10:17:56;;;;;;;12.90;9.83;;;;;;;42.47;34.19;101116.22;5029268;28;20515;-74
2022/11/20 10:20:43;;;;;;;16.10;9.93;;;;;;;42.29;34.35;101110.09;5031493;28;20426;-74
2022/11/20 10:23:34;;;;;;;22.47;11.47;;;;;;;42.23;34.62;101105.97;5028973;28;20429;-76
2022/11/20 10:26:16;;;;;;;22.10;12.37;;;;;;;42.72;34.02;101109.81;5033610;28;20882;-75
2022/11/20 10:29:15;;;;;;;19.00;9.97;;;;;;;42.26;34.47;101100.66;5034087;28;20451;-75
2022/11/20 10:31:47;;;;;;;20.60;10.97;;;;;;;42.08;34.86;101097.22;5033765;28;20448;-75
2022/11/20 10:34:43;;;;;;;23.03;14.23;;;;;;;42.13;34.77;101098.97;5052214;28;20413;-75
2022/11/20 10:37:12;;;;;;;18.63;14.07;;;;;;;41.79;35.46;101091.75;5048785;28;20522;-75
2022/11/20 10:39:49;;;;;;;16.80;11.67;;;;;;;42.01;34.91;101088.78;5033881;28;20500;-75
2022/11/20 10:42:21;;;;;;;14.43;10.53;;;;;;;42.15;34.99;101085.78;5034708;28;20434;-74
2022/11/20 10:45:01;;;;;;;16.40;9.87;;;;;;;42.11;34.96;101087.56;5035398;28;21040;-76
2022/11/20 10:47:31;;;;;;;20.03;11.23;;;;;;;41.96;34.58;101078.06;5034752;28;20809;-75
2022/11/20 10:50:04;;;;;;;18.20;10.03;;;;;;;42.05;34.62;101080.72;5034704;28;20427;-75
2022/11/20 10:52:49;;;;;;;20.87;9.90;;;;;;;42.42;33.98;101070.91;5035240;28;20508;-75
2022/11/20 10:56:07;;;;;;;16.73;10.93;;;;;;;42.77;33.45;101076.88;5034686;28;20427;-74
2022/11/20 10:59:10;;;;;;;14.73;9.80;;;;;;;42.85;33.05;101080.66;5013331;28;20454;-75
2022/11/20 11:01:41;;;;;;;20.90;11.07;;;;;;;42.52;33.55;101065.03;5035991;28;20934;-73
2022/11/20 11:04:38;;;;;;;15.40;9.47;;;;;;;42.29;33.90;101059.09;5034722;28;20502;-74
2022/11/20 11:07:15;;;;;;;20.20;9.97;;;;;;;42.28;33.61;101062.16;5032370;28;20434;-74
2022/11/20 11:09:52;;;;;;;20.60;9.00;;;;;;;42.20;33.69;101061.09;5034859;28;20465;-73
2022/11/20 11:12:20;;;;;;;19.63;9.30;;;;;;;42.57;33.97;101058.56;5052976;28;20931;-73
2022/11/20 11:14:51;;;;;;;23.30;11.03;;;;;;;42.55;33.71;101048.00;5034784;28;20797;-73
2022/11/20 11:17:27;;;;;;;18.30;9.33;;;;;;;42.75;33.26;101045.59;5034836;28;20415;-75
2022/11/20 11:20:26;;;;;;;14.40;10.63;;;;;;;42.28;34.07;101049.31;5035647;28;20557;-73
2022/11/20 11:22:59;;;;;;;15.37;9.57;;;;;;;42.36;33.89;101039.50;5048189;28;20445;-73